Time;durP1;ratioP1;P1;durP2;ratioP2;P2;SDS_P1;SDS_P2;PMS_P1;PMS_P2;Temp;Humidity;BMP_temperature;BMP_pressure;BME280_temperature;BME280_humidity;BME280_pressure;Samples;Min_cycle;Max_cycle;Signal;HPM_P1;HPM_P2
2021/12/03 00:01:29;;;;;;;3.97;2.38;;;1.10;99.90;;;;;;5047660;28;20044;-89
2021/12/03 00:03:55;;;;;;;5.40;2.83;;;1.10;99.90;;;;;;5034812;28;20023;-89
2021/12/03 00:06:21;;;;;;;4.15;2.60;;;1.10;99.90;;;;;;5012754;28;20422;-88
2021/12/03 00:08:47;;;;;;;4.13;2.20;;;1.10;99.90;;;;;;5036903;28;20040;-89
2021/12/03 00:11:13;;;;;;;4.05;2.55;;;1.00;99.90;;;;;;5009726;28;20030;-89
2021/12/03 00:13:40;;;;;;;5.35;2.85;;;1.00;99.90;;;;;;5014384;28;20040;-89
2021/12/03 00:16:06;;;;;;;5.35;2.50;;;1.00;99.90;;;;;;5021319;28;20026;-89
2021/12/03 00:18:33;;;;;;;4.68;2.40;;;1.00;99.90;;;;;;5041604;28;20083;-88
2021/12/03 00:21:03;;;;;;;9.02;2.78;;;0.90;99.90;;;;;;5003512;28;20508;-88
2021/12/03 00:23:29;;;;;;;4.68;2.30;;;0.90;99.90;;;;;;5034386;28;20033;-88
2021/12/03 00:25:57;;;;;;;3.47;2.22;;;0.80;99.90;;;;;;5000448;28;20034;-88
2021/12/03 00:28:22;;;;;;;5.13;2.20;;;0.80;99.90;;;;;;5004542;28;20033;-89
2021/12/03 00:30:48;;;;;;;4.22;2.50;;;0.70;99.90;;;;;;4996647;28;20057;-89
2021/12/03 00:33:14;;;;;;;3.92;2.08;;;0.70;99.90;;;;;;5011581;28;20026;-89
2021/12/03 00:35:40;;;;;;;4.55;2.38;;;0.60;99.90;;;;;;5034540;28;20036;-88
2021/12/03 00:38:06;;;;;;;4.45;2.55;;;0.50;99.90;;;;;;5018693;28;20064;-88
2021/12/03 00:40:38;;;;;;;4.63;2.63;;;0.50;99.90;;;;;;5031770;28;20056;-88
2021/12/03 00:43:04;;;;;;;6.00;2.97;;;0.40;99.90;;;;;;5012094;28;20294;-89
2021/12/03 00:45:31;;;;;;;6.20;2.95;;;0.40;99.90;;;;;;5002042;28;20037;-88
2021/12/03 00:47:58;;;;;;;7.00;2.97;;;0.30;99.90;;;;;;5018887;28;20104;-89
2021/12/03 00:50:24;;;;;;;6.53;3.25;;;0.30;99.90;;;;;;5033696;28;20032;-88
2021/12/03 00:52:51;;;;;;;7.35;3.63;;;0.20;99.90;;;;;;4999208;28;20026;-89
2021/12/03 00:55:17;;;;;;;5.15;3.03;;;0.20;99.90;;;;;;5001138;28;20064;-89
2021/12/03 00:57:43;;;;;;;7.68;3.40;;;0.10;99.90;;;;;;5041126;28;20068;-88
2021/12/03 01:00:13;;;;;;;7.68;3.17;;;0.10;99.90;;;;;;5010394;28;20054;-88
2021/12/03 01:02:39;;;;;;;9.40;4.13;;;0.10;99.90;;;;;;5017824;28;20580;-89
2021/12/03 01:05:05;;;;;;;7.68;2.97;;;0.00;99.90;;;;;;5014259;28;20018;-89
2021/12/03 01:07:31;;;;;;;6.82;3.42;;;0.00;99.90;;;;;;5037354;28;20029;-88
2021/12/03 01:09:56;;;;;;;7.45;3.13;;;0.00;99.90;;;;;;5003878;28;20129;-89
2021/12/03 01:12:22;;;;;;;10.75;3.55;;;-0.10;99.90;;;;;;4999742;28;20034;-88
2021/12/03 01:14:48;;;;;;;9.13;4.45;;;-0.10;99.90;;;;;;4998376;28;20037;-88
2021/12/03 01:17:14;;;;;;;6.03;3.38;;;-0.20;99.90;;;;;;5009133;28;20133;-88
2021/12/03 01:19:39;;;;;;;7.43;3.75;;;-0.20;99.90;;;;;;4999006;28;20048;-89
2021/12/03 01:22:06;;;;;;;9.10;4.18;;;-0.30;99.90;;;;;;5018711;28;20025;-89
2021/12/03 01:24:31;;;;;;;8.77;4.05;;;-0.30;99.90;;;;;;5020180;28;20068;-89
2021/12/03 01:26:57;;;;;;;13.15;4.30;;;-0.30;99.90;;;;;;5021009;28;20292;-89
2021/12/03 01:29:23;;;;;;;9.95;3.35;;;-0.40;99.90;;;;;;5019370;28;20053;-89
2021/12/03 01:31:51;;;;;;;10.00;4.47;;;-0.40;99.90;;;;;;5035655;28;20030;-89
2021/12/03 01:34:17;;;;;;;8.07;4.10;;;-0.40;99.90;;;;;;5032232;28;20033;-88
2021/12/03 01:36:43;;;;;;;9.23;3.92;;;-0.50;99.90;;;;;;5017515;28;20045;-89
2021/12/03 01:39:08;;;;;;;10.98;4.35;;;-0.50;99.90;;;;;;5002240;28;20029;-89
2021/12/03 01:41:34;;;;;;;8.38;4.43;;;-0.50;99.90;;;;;;5035086;28;20037;-89
2021/12/03 01:44:04;;;;;;;9.70;4.43;;;-0.50;99.90;;;;;;5023443;28;20037;-89
2021/12/03 01:46:31;;;;;;;9.55;4.13;;;-0.50;99.90;;;;;;5013762;28;20414;-89
2021/12/03 01:48:57;;;;;;;11.85;4.20;;;-0.60;99.90;;;;;;5031487;28;20112;-89
2021/12/03 01:51:23;;;;;;;11.13;4.55;;;-0.60;99.90;;;;;;5037045;28;20057;-89
2021/12/03 01:53:49;;;;;;;12.65;4.40;;;-0.60;99.90;;;;;;5020102;28;20030;-89
2021/12/03 01:56:16;;;;;;;10.88;4.10;;;-0.60;99.90;;;;;;5019107;28;20029;-89
2021/12/03 01:58:44;;;;;;;12.30;4.95;;;-0.60;99.90;;;;;;5002413;28;20086;-89
2021/12/03 02:01:13;;;;;;;10.43;3.88;;;-0.60;99.90;;;;;;5001350;28;20120;-89
2021/12/03 02:03:42;;;;;;;9.98;4.32;;;-0.60;99.90;;;;;;4999941;28;20125;-89
2021/12/03 02:06:10;;;;;;;10.20;4.38;;;-0.60;99.90;;;;;;4998969;28;20041;-89
2021/12/03 02:08:36;;;;;;;10.30;4.55;;;-0.70;99.90;;;;;;5016754;28;20045;-89
2021/12/03 02:11:04;;;;;;;12.05;4.45;;;-0.70;99.90;;;;;;5016346;28;20025;-89
2021/12/03 02:13:30;;;;;;;8.75;4.53;;;-0.70;99.90;;;;;;5001041;28;20636;-88
2021/12/03 02:15:56;;;;;;;7.40;3.78;;;-0.70;99.90;;;;;;5017382;28;20083;-89
2021/12/03 02:18:22;;;;;;;7.85;3.65;;;-0.70;99.90;;;;;;5002755;28;20041;-90
2021/12/03 02:20:57;;;;;;;8.15;3.85;;;-0.70;99.90;;;;;;5029805;28;20036;-89
2021/12/03 02:23:23;;;;;;;9.13;4.30;;;-0.80;99.90;;;;;;4987847;28;20034;-89
2021/12/03 02:25:50;;;;;;;8.80;4.38;;;-0.80;99.90;;;;;;4996152;28;20049;-88
2021/12/03 02:28:19;;;;;;;18.42;4.97;;;-0.80;99.90;;;;;;5020955;28;20060;-88
2021/12/03 02:30:45;;;;;;;9.90;4.40;;;-0.80;99.90;;;;;;5000246;28;20036;-89
2021/12/03 02:33:11;;;;;;;9.95;4.00;;;-0.80;99.90;;;;;;5016495;28;20025;-89
2021/12/03 02:35:40;;;;;;;10.40;4.05;;;-0.90;99.90;;;;;;5032280;28;20025;-89
2021/12/03 02:38:07;;;;;;;12.27;4.32;;;-0.90;99.90;;;;;;5016806;28;20429;-89
2021/12/03 02:40:33;;;;;;;13.82;4.45;;;-0.90;99.90;;;;;;5002676;28;20037;-88
2021/12/03 02:42:59;;;;;;;10.02;4.43;;;-0.90;99.90;;;;;;5009524;28;20052;-89
2021/12/03 02:45:25;;;;;;;11.10;4.25;;;-0.90;99.90;;;;;;5006836;28;20033;-89
2021/12/03 02:47:50;;;;;;;9.95;4.50;;;-1.00;99.90;;;;;;5021640;28;20083;-89
2021/12/03 02:50:17;;;;;;;9.45;3.60;;;-0.90;99.90;;;;;;5022408;28;20275;-89
2021/12/03 02:52:48;;;;;;;11.18;4.30;;;-1.00;99.90;;;;;;5034289;28;20033;-89
2021/12/03 02:55:14;;;;;;;12.38;4.22;;;-1.00;99.90;;;;;;5038410;28;20025;-89
2021/12/03 02:57:40;;;;;;;10.90;4.43;;;-1.00;99.90;;;;;;5004232;28;20025;-89
2021/12/03 03:00:10;;;;;;;13.23;4.40;;;-1.00;99.90;;;;;;5006620;28;20034;-89
2021/12/03 03:02:35;;;;;;;8.77;4.45;;;-1.00;99.90;;;;;;5012629;28;20044;-89
2021/12/03 03:05:03;;;;;;;13.82;5.22;;;-1.00;99.90;;;;;;5017163;28;20109;-89
2021/12/03 03:07:30;;;;;;;9.27;3.80;;;-1.00;99.90;;;;;;5005111;28;20025;-89
2021/12/03 03:09:56;;;;;;;9.70;4.28;;;-1.10;99.90;;;;;;5021424;28;20178;-89
2021/12/03 03:12:22;;;;;;;11.38;4.75;;;-1.10;99.90;;;;;;5005251;28;20022;-89
2021/12/03 03:14:53;;;;;;;7.07;3.45;;;-1.10;99.90;;;;;;5031071;28;20036;-89
2021/12/03 03:17:22;;;;;;;8.77;4.10;;;-1.20;99.90;;;;;;5019161;28;20061;-89
2021/12/03 03:19:49;;;;;;;10.18;3.90;;;-1.20;99.90;;;;;;5019887;28;20476;-89
2021/12/03 03:22:16;;;;;;;6.30;3.38;;;-1.20;99.90;;;;;;5005040;28;20458;-89
2021/12/03 03:24:42;;;;;;;8.80;4.43;;;-1.30;99.90;;;;;;5005102;28;20124;-89
2021/12/03 03:27:08;;;;;;;11.55;4.25;;;-1.30;99.90;;;;;;5000457;28;20090;-89
2021/12/03 03:29:34;;;;;;;10.45;4.15;;;-1.30;99.90;;;;;;4995059;28;20034;-89
2021/12/03 03:32:01;;;;;;;13.23;4.93;;;-1.30;99.90;;;;;;5019356;28;20060;-89
2021/12/03 03:34:26;;;;;;;10.25;4.68;;;-1.30;99.90;;;;;;5012426;28;20030;-89
2021/12/03 03:36:52;;;;;;;13.05;4.72;;;-1.30;99.90;;;;;;5022434;28;20030;-89
2021/12/03 03:39:20;;;;;;;20.83;4.78;;;-1.30;99.90;;;;;;5023762;28;20025;-89
2021/12/03 03:41:46;;;;;;;10.38;4.20;;;-1.30;99.90;;;;;;5020382;28;20030;-89
2021/12/03 03:44:15;;;;;;;9.65;4.18;;;-1.30;99.90;;;;;;5005003;28;20029;-89
2021/12/03 03:46:42;;;;;;;13.55;4.70;;;-1.30;99.90;;;;;;5023720;28;20041;-89
2021/12/03 03:49:08;;;;;;;13.75;4.72;;;-1.40;99.90;;;;;;5020554;28;20022;-88
2021/12/03 03:51:34;;;;;;;11.32;5.03;;;-1.40;99.90;;;;;;4999027;28;20099;-89
2021/12/03 03:54:00;;;;;;;14.23;4.32;;;-1.40;99.90;;;;;;5030590;28;20208;-89
2021/12/03 03:56:27;;;;;;;9.63;3.95;;;-1.40;99.90;;;;;;5018012;28;20029;-89
2021/12/03 03:58:53;;;;;;;8.25;3.88;;;-1.40;99.90;;;;;;5019324;28;20088;-89
2021/12/03 04:01:18;;;;;;;10.30;4.60;;;-1.40;99.90;;;;;;5027822;28;20049;-89
2021/12/03 04:03:46;;;;;;;9.77;4.20;;;-1.40;99.90;;;;;;5006172;28;20124;-88
2021/12/03 04:06:15;;;;;;;11.30;4.22;;;-1.40;99.90;;;;;;5009531;28;20030;-89
2021/12/03 04:08:42;;;;;;;10.85;3.92;;;-1.50;99.90;;;;;;5011712;28;20030;-89
2021/12/03 04:11:08;;;;;;;12.77;4.50;;;-1.50;99.90;;;;;;5014406;28;20033;-89
2021/12/03 04:13:34;;;;;;;15.00;4.60;;;-1.50;99.90;;;;;;5019362;28;20029;-89
2021/12/03 04:15:59;;;;;;;11.18;4.55;;;-1.50;99.90;;;;;;5019377;28;20032;-89
2021/12/03 04:18:25;;;;;;;10.05;4.55;;;-1.60;99.90;;;;;;5023030;28;20410;-89
2021/12/03 04:20:51;;;;;;;10.57;4.80;;;-1.50;99.90;;;;;;5035048;28;20036;-89
2021/12/03 04:23:19;;;;;;;6.82;3.67;;;-1.60;99.90;;;;;;5000923;28;20515;-89
2021/12/03 04:25:46;;;;;;;15.32;4.65;;;-1.60;99.90;;;;;;4998934;28;20053;-90
2021/12/03 04:28:12;;;;;;;9.10;4.28;;;-1.60;99.90;;;;;;5009898;23;20066;-82
2021/12/03 04:30:38;;;;;;;11.07;3.67;;;-1.60;99.90;;;;;;4958765;28;20112;-81
2021/12/03 04:33:04;;;;;;;9.73;4.53;;;-1.60;99.90;;;;;;4955774;28;20038;-82
2021/12/03 04:35:30;;;;;;;11.40;4.20;;;-1.60;99.90;;;;;;4962663;28;20133;-82
2021/12/03 04:37:57;;;;;;;9.98;4.03;;;-1.60;99.90;;;;;;4993844;28;20041;-83
2021/12/03 04:40:24;;;;;;;8.07;4.38;;;-1.60;99.90;;;;;;4990522;28;20038;-82
2021/12/03 04:42:50;;;;;;;8.52;4.03;;;-1.60;99.90;;;;;;4974733;28;20081;-81
2021/12/03 04:45:18;;;;;;;15.32;4.22;;;-1.70;99.90;;;;;;4992022;28;20066;-81
2021/12/03 04:47:48;;;;;;;12.07;4.70;;;-1.60;99.90;;;;;;4988423;28;20050;-81
2021/12/03 04:50:14;;;;;;;9.87;4.73;;;-1.70;99.90;;;;;;4984636;28;20408;-81
2021/12/03 04:52:40;;;;;;;12.95;4.38;;;-1.70;99.90;;;;;;4994886;28;20033;-82
2021/12/03 04:55:08;;;;;;;11.55;4.63;;;-1.70;99.90;;;;;;4980007;28;20498;-82
2021/12/03 04:57:35;;;;;;;10.63;4.43;;;-1.70;99.90;;;;;;4994826;28;20393;-82
2021/12/03 05:00:02;;;;;;;12.65;4.75;;;-1.70;99.90;;;;;;4989968;28;20034;-82
2021/12/03 05:02:27;;;;;;;9.25;4.68;;;-1.70;99.90;;;;;;4974302;28;20061;-81
2021/12/03 05:04:55;;;;;;;12.38;4.53;;;-1.70;99.90;;;;;;4988777;28;20042;-81
2021/12/03 05:10:07;;;;;;;14.68;4.95;;;-1.70;99.90;;;;;;5011670;28;20046;-81
2021/12/03 05:12:33;;;;;;;10.65;5.03;;;-1.70;99.90;;;;;;5005620;28;20543;-81
2021/12/03 05:14:59;;;;;;;9.65;4.32;;;-1.70;99.90;;;;;;4999012;28;20537;-81
2021/12/03 05:17:25;;;;;;;16.02;4.70;;;-1.70;99.90;;;;;;4988729;28;20117;-81
2021/12/03 05:19:51;;;;;;;13.50;5.35;;;-1.70;99.90;;;;;;5006883;28;20121;-81
2021/12/03 05:22:16;;;;;;;10.25;4.43;;;-1.70;99.90;;;;;;5007277;28;20117;-81
2021/12/03 05:24:45;;;;;;;11.45;4.50;;;-1.70;99.90;;;;;;4988793;28;20038;-81
2021/12/03 05:27:16;;;;;;;11.77;4.80;;;-1.70;99.90;;;;;;5006018;28;20030;-81
2021/12/03 05:29:44;;;;;;;16.00;5.40;;;-1.60;99.90;;;;;;4992066;28;20046;-81
2021/12/03 05:32:11;;;;;;;12.27;4.93;;;-1.70;99.90;;;;;;4973172;28;20125;-81
2021/12/03 05:34:38;;;;;;;13.23;5.55;;;-1.70;99.90;;;;;;4975433;28;20039;-81
2021/12/03 05:37:05;;;;;;;17.10;5.75;;;-1.70;99.90;;;;;;4970837;28;20054;-81
2021/12/03 05:39:31;;;;;;;11.43;4.80;;;-1.70;99.90;;;;;;4967414;28;20443;-81
2021/12/03 05:41:57;;;;;;;11.57;5.88;;;-1.70;99.90;;;;;;4991058;28;20484;-81
2021/12/03 05:44:23;;;;;;;14.98;5.22;;;-1.60;99.90;;;;;;4983372;28;20062;-81
2021/12/03 05:46:48;;;;;;;12.82;6.28;;;-1.50;99.90;;;;;;4955673;28;20058;-81
2021/12/03 05:49:14;;;;;;;19.92;6.00;;;-1.50;99.90;;;;;;4954666;28;20026;-81
2021/12/03 05:51:40;;;;;;;12.38;5.82;;;-1.50;99.90;;;;;;4977325;28;20022;-81
2021/12/03 05:54:05;;;;;;;17.65;5.50;;;-1.50;99.90;;;;;;4990019;28;20489;-81
2021/12/03 05:56:31;;;;;;;13.65;5.40;;;-1.40;99.90;;;;;;4985499;28;20045;-81
2021/12/03 05:58:57;;;;;;;15.15;6.22;;;-1.40;99.90;;;;;;4954692;28;20101;-82
2021/12/03 06:01:23;;;;;;;16.75;5.60;;;-1.40;99.90;;;;;;4965758;28;20515;-81
2021/12/03 06:03:48;;;;;;;11.82;5.75;;;-1.40;99.90;;;;;;4981763;28;20545;-81
2021/12/03 06:06:15;;;;;;;17.02;5.55;;;-1.40;99.90;;;;;;4954211;28;20042;-81
2021/12/03 06:08:42;;;;;;;11.48;5.28;;;-1.30;99.90;;;;;;4961567;28;20405;-81
2021/12/03 06:11:08;;;;;;;12.30;5.03;;;-1.30;99.90;;;;;;4989692;28;20030;-81
2021/12/03 06:13:38;;;;;;;13.73;5.57;;;-1.20;99.90;;;;;;4999649;28;20596;-81
2021/12/03 06:16:05;;;;;;;14.93;5.65;;;-1.20;99.90;;;;;;4955236;28;20502;-81
2021/12/03 06:18:30;;;;;;;10.25;4.72;;;-1.20;99.90;;;;;;4954319;28;20440;-81
2021/12/03 06:20:56;;;;;;;14.40;5.32;;;-1.10;99.90;;;;;;4971495;28;20035;-81
2021/12/03 06:23:22;;;;;;;11.95;5.25;;;-1.10;99.90;;;;;;4958627;28;20034;-81
2021/12/03 06:25:47;;;;;;;10.45;5.07;;;-1.00;99.90;;;;;;4989439;28;20088;-81
2021/12/03 06:28:13;;;;;;;13.77;4.90;;;-0.90;99.90;;;;;;4987867;28;20034;-81
2021/12/03 06:30:39;;;;;;;22.83;5.90;;;-0.90;99.90;;;;;;5006062;28;20485;-81
2021/12/03 06:33:05;;;;;;;15.25;5.70;;;-0.90;99.90;;;;;;4989523;28;20050;-81
2021/12/03 06:35:31;;;;;;;15.93;6.15;;;-0.80;99.90;;;;;;4989477;28;20050;-81
2021/12/03 06:37:56;;;;;;;13.15;5.45;;;-0.80;99.90;;;;;;5004344;28;20092;-81
2021/12/03 06:40:25;;;;;;;17.15;5.55;;;-0.80;99.90;;;;;;4954107;28;20039;-81
2021/12/03 06:42:51;;;;;;;15.98;5.72;;;-0.80;99.90;;;;;;4964699;28;20101;-81
2021/12/03 06:45:17;;;;;;;13.98;5.45;;;-0.80;99.90;;;;;;5004580;28;20042;-82
2021/12/03 06:47:43;;;;;;;14.60;6.00;;;-0.70;99.90;;;;;;4986812;28;20110;-81
2021/12/03 06:50:12;;;;;;;14.65;6.10;;;-0.70;99.90;;;;;;4989468;28;20537;-81
2021/12/03 06:52:40;;;;;;;14.90;5.78;;;-0.70;99.90;;;;;;4989421;28;20022;-81
2021/12/03 06:55:10;;;;;;;11.60;6.13;;;-0.60;99.90;;;;;;4971774;28;20031;-81
2021/12/03 06:57:36;;;;;;;17.55;6.72;;;-0.60;99.90;;;;;;4966063;28;20035;-81
2021/12/03 07:00:04;;;;;;;13.95;6.63;;;-0.60;99.90;;;;;;5005513;28;20038;-81
2021/12/03 07:02:30;;;;;;;12.52;6.13;;;-0.50;99.90;;;;;;4989452;28;20448;-81
2021/12/03 07:04:55;;;;;;;19.80;6.78;;;-0.50;99.90;;;;;;4988216;28;20078;-82
2021/12/03 07:07:21;;;;;;;14.07;5.70;;;-0.50;99.90;;;;;;4969840;28;20031;-81
2021/12/03 07:09:48;;;;;;;13.68;6.80;;;-0.40;99.90;;;;;;4968772;28;20521;-82
2021/12/03 07:12:15;;;;;;;15.70;6.72;;;-0.40;99.90;;;;;;4972964;28;20035;-81
2021/12/03 07:14:41;;;;;;;14.82;6.78;;;-0.40;99.90;;;;;;4954252;28;20034;-82
2021/12/03 07:17:07;;;;;;;15.82;7.18;;;-0.30;99.90;;;;;;4966094;28;20101;-82
2021/12/03 07:19:35;;;;;;;16.77;7.03;;;-0.30;99.90;;;;;;5003592;28;20405;-81
2021/12/03 07:22:01;;;;;;;22.02;7.38;;;-0.30;99.90;;;;;;4986530;28;20422;-82
2021/12/03 07:24:27;;;;;;;14.88;7.40;;;-0.30;99.90;;;;;;4954499;28;20159;-82
2021/12/03 07:26:52;;;;;;;13.68;6.32;;;-0.30;99.90;;;;;;5005046;28;20507;-83
2021/12/03 07:29:18;;;;;;;14.48;7.00;;;-0.20;99.90;;;;;;5013341;28;20034;-83
2021/12/03 07:31:44;;;;;;;15.40;6.82;;;-0.20;99.90;;;;;;4977355;28;20051;-82
2021/12/03 07:34:12;;;;;;;16.33;6.85;;;-0.20;99.90;;;;;;4957874;28;20118;-82
2021/12/03 07:36:37;;;;;;;11.63;5.20;;;-0.20;99.90;;;;;;4976123;28;20041;-81
2021/12/03 07:39:04;;;;;;;10.18;5.18;;;-0.20;99.90;;;;;;4957309;28;20026;-82
2021/12/03 07:41:30;;;;;;;12.95;6.32;;;-0.20;99.90;;;;;;4987968;28;20034;-81
2021/12/03 07:43:55;;;;;;;15.63;6.78;;;-0.10;99.90;;;;;;4979870;28;20030;-81
2021/12/03 07:46:21;;;;;;;16.52;6.82;;;-0.10;99.90;;;;;;4992078;28;20422;-81
2021/12/03 07:48:48;;;;;;;17.70;6.50;;;-0.10;99.90;;;;;;5012512;28;20030;-81
2021/12/03 07:51:17;;;;;;;13.23;6.45;;;-0.10;99.90;;;;;;4976116;28;20038;-81
2021/12/03 07:53:43;;;;;;;20.67;6.88;;;-0.10;99.90;;;;;;4976166;28;20026;-81
2021/12/03 07:56:09;;;;;;;14.07;6.43;;;0.00;99.90;;;;;;4976037;28;20038;-81
2021/12/03 07:58:36;;;;;;;13.65;5.88;;;0.00;99.90;;;;;;4976197;28;20042;-81
2021/12/03 08:01:02;;;;;;;17.35;7.03;;;0.00;99.90;;;;;;4975952;28;20042;-81
2021/12/03 08:03:28;;;;;;;14.95;6.13;;;0.00;99.90;;;;;;4951828;28;20035;-81
2021/12/03 08:05:53;;;;;;;12.10;6.43;;;0.10;99.90;;;;;;4968684;28;20170;-81
2021/12/03 08:08:23;;;;;;;16.15;7.43;;;0.10;99.90;;;;;;4956715;28;20030;-82
2021/12/03 08:10:50;;;;;;;13.00;6.43;;;0.10;99.90;;;;;;4974020;28;20064;-81
2021/12/03 08:13:16;;;;;;;14.70;6.55;;;0.10;99.90;;;;;;4988604;28;20524;-81
2021/12/03 08:15:42;;;;;;;20.13;7.15;;;0.20;99.90;;;;;;4972195;28;20023;-82
2021/12/03 08:18:09;;;;;;;15.05;7.32;;;0.20;99.90;;;;;;4972351;28;20493;-82
2021/12/03 08:20:34;;;;;;;12.63;6.32;;;0.20;99.90;;;;;;4978109;28;20041;-82
2021/12/03 08:23:00;;;;;;;16.13;6.25;;;0.20;99.90;;;;;;4956418;28;20482;-81
2021/12/03 08:25:27;;;;;;;13.25;6.13;;;0.20;99.90;;;;;;4956232;28;20027;-81
2021/12/03 08:27:54;;;;;;;15.73;6.30;;;0.30;99.90;;;;;;4972375;28;20413;-81
2021/12/03 08:30:20;;;;;;;11.35;6.10;;;0.30;99.90;;;;;;4985249;28;20023;-81
2021/12/03 08:32:46;;;;;;;17.70;6.18;;;0.30;99.90;;;;;;4990363;28;20052;-80
2021/12/03 08:35:11;;;;;;;13.45;6.07;;;0.30;99.90;;;;;;5002663;28;20121;-80
2021/12/03 08:37:43;;;;;;;13.13;6.05;;;0.30;99.90;;;;;;4987502;28;20042;-80
2021/12/03 08:40:09;;;;;;;10.57;5.60;;;0.30;99.90;;;;;;4957918;28;20086;-81
2021/12/03 08:42:35;;;;;;;13.43;5.55;;;0.30;99.90;;;;;;4956347;28;20144;-80
2021/12/03 08:45:03;;;;;;;12.57;5.57;;;0.30;99.90;;;;;;4955975;28;20034;-81
2021/12/03 08:47:30;;;;;;;7.82;4.82;;;0.30;99.90;;;;;;4981652;28;20392;-81
2021/12/03 08:49:56;;;;;;;13.40;5.57;;;0.30;99.90;;;;;;5007781;28;20081;-80
2021/12/03 08:54:58;;;;;;;10.32;5.30;;;0.30;99.90;;;;;;4972082;28;20043;-81
2021/12/03 08:57:32;;;;;;;10.35;5.03;;;0.30;99.90;;;;;;4955692;28;20023;-81
2021/12/03 09:00:11;;;;;;;11.98;5.22;;;0.30;99.90;;;;;;4971702;28;20042;-82
2021/12/03 09:02:36;;;;;;;9.60;5.43;;;0.40;99.90;;;;;;4965684;28;20525;-81
2021/12/03 09:05:03;;;;;;;15.27;4.80;;;0.40;99.90;;;;;;5007301;28;20038;-81
2021/12/03 09:07:28;;;;;;;12.75;5.75;;;0.40;99.90;;;;;;4982132;28;20031;-82
2021/12/03 09:09:54;;;;;;;9.73;4.82;;;0.40;99.90;;;;;;4971571;28;20054;-81
2021/12/03 09:12:20;;;;;;;10.48;4.80;;;0.40;99.90;;;;;;4971584;28;20026;-82
2021/12/03 09:14:52;;;;;;;14.38;6.05;;;0.40;99.90;;;;;;4987109;28;20456;-82
2021/12/03 09:20:23;;;;;;;10.10;5.40;;;0.50;99.90;;;;;;4993496;28;20092;-81
2021/12/03 09:22:51;;;;;;;10.68;5.07;;;0.50;99.90;;;;;;5004589;28;20031;-81
2021/12/03 09:25:37;;;;;;;9.13;4.25;;;0.50;99.90;;;;;;5006996;28;20093;-81
2021/12/03 09:28:05;;;;;;;9.40;4.72;;;0.50;99.90;;;;;;4990756;28;20129;-81
2021/12/03 09:30:37;;;;;;;10.70;5.28;;;0.60;99.90;;;;;;4990687;28;20113;-80
2021/12/03 09:33:08;;;;;;;17.67;5.72;;;0.60;99.90;;;;;;4988479;28;20113;-81
2021/12/03 09:35:39;;;;;;;13.63;5.05;;;0.60;99.90;;;;;;4956999;28;20047;-81
2021/12/03 09:38:05;;;;;;;13.93;5.32;;;0.70;99.90;;;;;;4955687;28;20081;-81
2021/12/03 09:40:32;;;;;;;7.97;4.38;;;0.70;99.90;;;;;;4972461;28;20363;-80
2021/12/03 09:42:58;;;;;;;8.65;3.88;;;0.70;99.90;;;;;;4987901;28;20040;-81
2021/12/03 09:45:24;;;;;;;7.38;4.13;;;0.80;99.90;;;;;;5006701;28;20031;-81
2021/12/03 09:47:53;;;;;;;6.03;3.45;;;0.80;99.90;;;;;;4996758;28;20494;-82
2021/12/03 09:50:19;;;;;;;7.47;4.13;;;0.70;99.90;;;;;;4970167;28;20465;-80
2021/12/03 09:55:31;;;;;;;9.80;4.15;;;0.70;99.90;;;;;;4990264;28;20037;-80
2021/12/03 10:00:56;;;;;;;9.48;4.22;;;0.70;99.90;;;;;;4978250;28;20552;-81
2021/12/03 10:19:24;;;;;;;13.88;5.78;;;0.90;99.90;;;;;;4989995;28;20022;-81
2021/12/03 10:29:58;;;;;;;16.25;6.03;;;0.90;99.90;;;;;;5030452;23;20535;-88
2021/12/03 10:38:05;;;;;;;20.38;6.22;;;0.70;99.90;;;;;;5050657;28;20124;-88
2021/12/03 10:48:54;;;;;;;15.50;6.82;;;0.70;99.90;;;;;;5029097;28;20095;-88
2021/12/03 10:52:10;;;;;;;19.05;6.10;;;0.70;99.90;;;;;;4998458;28;20037;-88
2021/12/03 10:54:32;;;;;;;14.85;5.95;;;0.60;99.90;;;;;;5023946;28;20405;-88
2021/12/03 11:08:29;;;;;;;14.68;5.95;;;0.70;99.90;;;;;;4961688;28;20030;-87
2021/12/03 11:16:55;;;;;;;18.02;6.63;;;0.70;99.90;;;;;;4997023;28;20125;-88
2021/12/03 11:46:38;;;;;;;13.82;6.07;;;0.80;99.90;;;;;;5013519;28;20402;-89
2021/12/03 11:58:09;;;;;;;11.10;5.82;;;0.80;99.90;;;;;;5018414;28;20061;-89
2021/12/03 12:01:15;;;;;;;11.75;5.10;;;0.80;99.90;;;;;;5032410;28;20037;-89
2021/12/03 12:18:32;;;;;;;10.00;4.65;;;0.90;99.90;;;;;;5031837;28;20042;-89
2021/12/03 13:16:50;;;;;;;5.47;3.25;;;1.10;99.90;;;;;;5031644;28;20057;-89
2021/12/03 14:08:51;;;;;;;5.68;3.30;;;1.40;99.90;;;;;;5013623;28;20064;-89
2021/12/03 14:11:41;;;;;;;5.30;3.42;;;1.40;99.90;;;;;;5022234;28;20037;-88
2021/12/03 14:49:53;;;;;;;6.30;3.05;;;1.50;99.90;;;;;;5030283;28;20017;-88
2021/12/03 14:52:26;;;;;;;9.05;4.18;;;1.50;99.90;;;;;;5029284;28;20589;-88
2021/12/03 14:54:54;;;;;;;12.00;4.20;;;1.40;99.90;;;;;;5012660;28;20029;-88
2021/12/03 15:03:05;;;;;;;8.43;3.72;;;1.40;99.90;;;;;;5029470;28;20040;-88
2021/12/03 15:08:23;;;;;;;5.55;3.00;;;1.30;99.90;;;;;;5029194;28;20030;-88
2021/12/03 15:32:29;;;;;;;7.60;3.22;;;1.10;99.90;;;;;;5030220;28;20036;-88
2021/12/03 15:35:43;;;;;;;8.75;3.85;;;1.10;99.90;;;;;;5012060;28;20433;-87
2021/12/03 16:04:47;;;;;;;13.30;3.67;;;1.10;99.90;;;;;;5030975;28;20397;-87
2021/12/03 16:10:15;;;;;;;21.75;6.10;;;1.20;99.90;;;;;;5031764;28;20429;-87
2021/12/03 16:18:41;;;;;;;8.98;3.88;;;1.10;99.90;;;;;;4994726;28;20046;-87
2021/12/03 16:49:45;;;;;;;12.77;3.65;;;1.20;99.90;;;;;;5033379;28;20188;-84
2021/12/03 16:53:55;;;;;;;9.27;3.65;;;1.20;99.90;;;;;;5033927;28;20402;-84
2021/12/03 16:56:29;;;;;;;11.40;3.95;;;1.10;99.90;;;;;;5016522;28;20131;-84
2021/12/03 16:58:57;;;;;;;7.50;3.83;;;1.10;99.90;;;;;;5011547;28;20114;-83
2021/12/03 17:01:31;;;;;;;11.85;4.40;;;1.10;99.90;;;;;;5006830;28;20030;-84
2021/12/03 17:23:02;;;;;;;5.68;3.28;;;1.10;99.90;;;;;;5034792;28;20052;-84
2021/12/03 17:49:38;;;;;;;17.40;6.30;;;1.20;99.90;;;;;;5033939;28;20033;-84
2021/12/03 17:54:46;;;;;;;26.13;8.98;;;1.20;99.90;;;;;;5034059;28;20052;-83
2021/12/03 17:59:56;;;;;;;15.38;7.95;;;1.20;99.90;;;;;;5034567;28;20068;-83
2021/12/03 18:02:35;;;;;;;13.07;6.35;;;1.20;99.90;;;;;;5015746;28;20056;-84
2021/12/03 18:05:56;;;;;;;11.05;5.15;;;1.30;99.90;;;;;;5018003;28;20494;-84
2021/12/03 18:13:46;;;;;;;9.30;4.10;;;1.30;99.90;;;;;;5034879;28;20036;-84
2021/12/03 18:43:28;;;;;;;24.70;9.18;;;1.30;99.90;;;;;;5036262;28;20040;-83
2021/12/03 18:51:16;;;;;;;22.55;9.20;;;1.30;99.90;;;;;;5012054;28;20350;-84
2021/12/03 18:53:51;;;;;;;9.85;5.82;;;1.30;99.90;;;;;;5008369;28;20025;-85
2021/12/03 18:56:21;;;;;;;16.30;5.20;;;1.40;99.90;;;;;;5027342;28;20030;-84
2021/12/03 18:58:53;;;;;;;8.07;4.43;;;1.30;99.90;;;;;;5012512;28;20057;-83
2021/12/03 19:01:19;;;;;;;6.68;3.50;;;1.40;99.90;;;;;;4996119;28;20049;-83
2021/12/03 19:11:50;;;;;;;8.20;3.92;;;1.40;99.90;;;;;;5029648;28;20061;-83
2021/12/03 19:14:02;;;;;;;8.43;3.03;;;1.40;99.90;;;;;;5006610;28;20409;-84
2021/12/03 19:16:29;;;;;;;8.57;3.17;;;1.30;99.90;;;;;;4994508;28;20140;-85
2021/12/03 19:18:57;;;;;;;8.45;3.13;;;1.30;99.90;;;;;;5012361;28;20117;-83
2021/12/03 19:21:26;;;;;;;7.70;3.95;;;1.30;99.90;;;;;;4996392;28;20120;-83
2021/12/03 19:23:57;;;;;;;8.57;4.10;;;1.30;99.90;;;;;;5016713;28;20037;-84
2021/12/03 19:26:24;;;;;;;9.63;3.88;;;1.30;99.90;;;;;;5010426;28;20034;-83
2021/12/03 19:28:50;;;;;;;9.23;3.50;;;1.30;99.90;;;;;;4996420;28;20044;-84
2021/12/03 19:31:17;;;;;;;8.32;3.10;;;1.30;99.90;;;;;;5006173;28;20038;-83
2021/12/03 19:33:43;;;;;;;9.02;2.63;;;1.30;99.90;;;;;;5030879;28;20381;-84
2021/12/03 19:36:10;;;;;;;5.28;2.72;;;1.30;99.90;;;;;;5032382;28;20486;-83
2021/12/03 19:38:38;;;;;;;9.02;2.97;;;1.30;99.90;;;;;;5031509;28;20036;-84
2021/12/03 19:41:14;;;;;;;6.22;2.63;;;1.30;99.90;;;;;;4995352;28;20034;-84
2021/12/03 19:43:46;;;;;;;4.93;2.65;;;1.40;99.90;;;;;;5013600;28;20516;-84
2021/12/03 19:46:18;;;;;;;9.10;2.80;;;1.40;99.90;;;;;;5014425;28;20234;-83
2021/12/03 19:48:57;;;;;;;5.72;3.25;;;1.40;99.90;;;;;;5014989;28;20045;-83
2021/12/03 19:51:26;;;;;;;7.65;2.55;;;1.40;99.90;;;;;;5014313;28;20191;-84
2021/12/03 19:56:25;;;;;;;8.75;2.80;;;1.40;99.90;;;;;;5030558;28;20555;-84
2021/12/03 19:58:52;;;;;;;8.23;3.38;;;1.40;99.90;;;;;;5030308;28;20037;-83
2021/12/03 20:01:18;;;;;;;6.93;2.83;;;1.40;99.90;;;;;;5014468;28;20103;-83
2021/12/03 20:03:44;;;;;;;9.40;2.65;;;1.40;99.90;;;;;;5014792;28;20033;-82
2021/12/03 20:06:10;;;;;;;6.45;2.83;;;1.50;99.90;;;;;;5014243;28;20516;-84
2021/12/03 20:08:36;;;;;;;7.07;2.97;;;1.40;99.90;;;;;;4995141;28;20051;-83
2021/12/03 20:11:07;;;;;;;16.30;3.47;;;1.50;99.90;;;;;;5013353;28;20026;-83
2021/12/03 20:13:33;;;;;;;;;;;1.50;99.90;;;;;;4999275;28;20413;-83
2021/12/03 20:18:44;;;;;;;10.55;4.20;;;1.50;99.90;;;;;;5034688;28;20280;-83
2021/12/03 20:21:12;;;;;;;12.38;3.60;;;1.50;99.90;;;;;;5032334;28;20119;-83
2021/12/03 20:27:05;;;;;;;12.82;4.38;;;1.50;99.90;;;;;;4988759;28;20069;-83
2021/12/03 20:29:37;;;;;;;8.88;3.63;;;1.50;99.90;;;;;;4989263;28;20035;-83